Gateway, Arkansas
Current Conditions -  °F | °C
As of 4:57 PM on Saturday 25 Oct 2014 (Local Time) from KROG Reporting Station
Clear Clear  
Wind Chill: 81°   Ceiling: Unl
Heat Index: 82°   Visibility: 10mi
Dew Point: 62°   Wind: 6mph
Humidity: 52%   Direction: 260°W
Pressure: 30.06"   Gusts: NA
Location:  36.49°N, 93.93°W
Report Text: KROG 252157Z 26005KT 10SM CLR 27/17 A3006 RMK AO2 SLP169 T02720167
Loading
Personal Weather Stations






























Interactive Weather Map New forecast layout! Learn more

10-Day Weather Forecast

Advertisements
Track Severe Weather on mobile